createdAt,value
2018-12-23T00:02:07.915Z,4.70
2018-12-23T00:04:34.566Z,5.28
2018-12-23T00:07:01.294Z,5.50
2018-12-23T00:09:27.965Z,5.12
2018-12-23T00:11:54.621Z,5.05
2018-12-23T00:14:21.394Z,4.90
2018-12-23T00:16:48.187Z,5.87
2018-12-23T00:19:14.848Z,5.85
2018-12-23T00:21:41.533Z,5.72
2018-12-23T00:24:08.202Z,6.20
2018-12-23T00:26:34.865Z,5.75
2018-12-23T00:29:01.548Z,5.80
2018-12-23T00:31:28.202Z,4.83
2018-12-23T00:33:54.850Z,4.70
2018-12-23T00:36:21.524Z,5.28
2018-12-23T00:38:48.173Z,4.70
2018-12-23T00:41:14.854Z,5.22
2018-12-23T00:43:41.509Z,5.03
2018-12-23T00:46:08.175Z,6.60
2018-12-23T00:48:34.864Z,4.92
2018-12-23T00:51:01.531Z,5.03
2018-12-23T00:53:28.202Z,5.03
2018-12-23T00:55:54.865Z,4.25
2018-12-23T00:58:21.513Z,4.87
2018-12-23T01:00:48.160Z,4.40
2018-12-23T01:03:14.829Z,4.25
2018-12-23T01:05:41.491Z,4.40
2018-12-23T01:08:08.178Z,4.70
2018-12-23T01:10:34.825Z,4.90
2018-12-23T01:13:01.478Z,5.03
2018-12-23T01:15:28.141Z,5.20
2018-12-23T01:17:54.789Z,5.05
2018-12-23T01:20:21.467Z,5.10
2018-12-23T01:22:48.121Z,4.85
2018-12-23T01:25:14.775Z,4.83
2018-12-23T01:27:41.453Z,4.90
2018-12-23T01:30:08.114Z,5.03
2018-12-23T01:32:34.777Z,5.35
2018-12-23T01:35:01.459Z,4.80
2018-12-23T01:37:28.114Z,4.92
2018-12-23T01:39:54.770Z,4.92
2018-12-23T01:42:21.462Z,6.17
2018-12-23T01:44:48.114Z,5.67
2018-12-23T01:47:14.779Z,5.92
2018-12-23T01:49:41.518Z,6.37
2018-12-23T01:52:08.261Z,5.28
2018-12-23T01:54:34.999Z,5.92
2018-12-23T01:57:01.762Z,5.25
2018-12-23T01:59:28.482Z,6.00
2018-12-23T02:01:55.221Z,5.20
2018-12-23T02:04:21.965Z,5.85
2018-12-23T02:06:48.701Z,4.85
2018-12-23T02:09:15.544Z,5.30
2018-12-23T02:11:42.293Z,4.55
2018-12-23T02:14:09.025Z,5.25
2018-12-23T02:16:35.766Z,5.17
2018-12-23T02:19:02.505Z,4.75
2018-12-23T02:21:29.157Z,4.55
2018-12-23T02:23:55.886Z,4.60
2018-12-23T02:26:22.573Z,5.33
2018-12-23T02:28:49.243Z,5.72
2018-12-23T02:31:15.930Z,11.90
2018-12-23T02:33:42.581Z,8.45
2018-12-23T02:36:09.262Z,8.90
2018-12-23T02:38:35.921Z,11.05
2018-12-23T02:41:02.591Z,14.38
2018-12-23T02:43:29.269Z,12.25
2018-12-23T02:45:55.933Z,8.95
2018-12-23T02:48:22.617Z,11.80
2018-12-23T02:50:49.278Z,10.50
2018-12-23T02:53:15.956Z,7.05
2018-12-23T02:55:42.627Z,10.23
2018-12-23T02:58:09.286Z,11.45
2018-12-23T03:00:35.979Z,10.03
2018-12-23T03:03:02.717Z,8.00
2018-12-23T03:05:29.389Z,8.90
2018-12-23T03:07:56.053Z,8.80
2018-12-23T03:10:22.736Z,9.18
2018-12-23T03:12:49.399Z,7.67
2018-12-23T03:15:16.072Z,8.43
2018-12-23T03:17:42.734Z,7.00
2018-12-23T03:20:09.402Z,8.20
2018-12-23T03:22:36.782Z,7.87
2018-12-23T03:25:03.568Z,7.30
2018-12-23T03:27:30.227Z,7.50
2018-12-23T03:29:56.914Z,6.70
2018-12-23T03:32:23.585Z,8.53
2018-12-23T03:34:50.245Z,8.23
2018-12-23T03:37:16.929Z,7.10
2018-12-23T03:39:43.594Z,7.80
2018-12-23T03:42:10.266Z,7.65
2018-12-23T03:44:36.982Z,7.60
2018-12-23T03:47:03.635Z,6.42
2018-12-23T03:49:30.315Z,7.95
2018-12-23T03:51:56.978Z,7.30
2018-12-23T03:54:23.672Z,7.22
2018-12-23T03:56:50.325Z,6.50
2018-12-23T03:59:17.018Z,6.85
2018-12-23T04:01:43.689Z,6.87
2018-12-23T04:04:10.362Z,7.45
2018-12-23T04:06:37.023Z,7.25
2018-12-23T04:09:05.049Z,6.20
2018-12-23T04:11:31.702Z,8.03
2018-12-23T04:13:58.382Z,7.35
2018-12-23T04:16:25.074Z,7.37
2018-12-23T04:18:51.735Z,8.15
2018-12-23T04:21:18.410Z,7.97
2018-12-23T04:23:45.068Z,7.60
2018-12-23T04:26:11.774Z,7.75
2018-12-23T04:28:38.425Z,7.67
2018-12-23T04:31:05.083Z,7.10
2018-12-23T04:33:31.752Z,7.28
2018-12-23T04:35:58.401Z,6.92
2018-12-23T04:38:25.066Z,6.10
2018-12-23T04:40:51.810Z,6.10
2018-12-23T04:43:18.535Z,6.15
2018-12-23T04:45:45.199Z,7.15
2018-12-23T04:48:11.886Z,6.70
2018-12-23T04:50:38.542Z,5.10
2018-12-23T04:53:05.198Z,6.83
2018-12-23T04:55:31.890Z,6.78
2018-12-23T04:57:58.648Z,5.85
2018-12-23T05:00:25.306Z,7.25
2018-12-23T05:02:52.007Z,6.50
2018-12-23T05:05:18.661Z,5.97
2018-12-23T05:07:45.321Z,7.20
2018-12-23T05:10:11.999Z,5.50
2018-12-23T05:12:38.654Z,5.42
2018-12-23T05:15:05.301Z,5.80
2018-12-23T05:17:31.982Z,6.70
2018-12-23T05:19:58.634Z,6.33
2018-12-23T05:22:25.365Z,7.22
2018-12-23T05:24:52.050Z,5.72
2018-12-23T05:27:18.711Z,6.62
2018-12-23T05:29:45.377Z,6.50
2018-12-23T05:32:12.050Z,7.40
2018-12-23T05:34:38.732Z,5.95
2018-12-23T05:37:05.382Z,6.42
2018-12-23T05:39:32.034Z,9.88
2018-12-23T05:41:58.724Z,7.12
2018-12-23T05:44:25.395Z,8.03
2018-12-23T05:46:52.079Z,7.50
2018-12-23T05:49:18.729Z,6.83
2018-12-23T05:51:45.389Z,6.55
2018-12-23T05:54:12.070Z,8.53
2018-12-23T05:56:38.724Z,7.50
2018-12-23T05:59:05.386Z,6.40
2018-12-23T06:01:32.069Z,6.40
2018-12-23T06:03:58.714Z,6.35
2018-12-23T06:06:25.377Z,6.08
2018-12-23T06:08:52.051Z,7.45
2018-12-23T06:11:18.737Z,7.45
2018-12-23T06:13:45.390Z,7.70
2018-12-23T06:16:12.037Z,7.55
2018-12-23T06:18:38.704Z,6.95
2018-12-23T06:21:05.362Z,6.47
2018-12-23T06:23:32.050Z,7.12
2018-12-23T06:25:58.706Z,6.47
2018-12-23T06:28:25.349Z,6.97
2018-12-23T06:30:52.034Z,7.45
2018-12-23T06:33:18.688Z,6.80
2018-12-23T06:35:45.350Z,6.55
2018-12-23T06:38:12.033Z,7.25
2018-12-23T06:40:38.691Z,6.72
2018-12-23T06:43:05.353Z,8.33
2018-12-23T06:45:32.078Z,8.10
2018-12-23T06:47:58.730Z,9.03
2018-12-23T06:50:25.457Z,7.50
2018-12-23T06:52:52.104Z,7.75
2018-12-23T06:55:18.833Z,7.47
2018-12-23T06:57:45.524Z,7.45
2018-12-23T07:00:12.179Z,7.40
2018-12-23T07:02:38.832Z,7.90
2018-12-23T07:05:05.598Z,7.53
2018-12-23T07:07:32.262Z,8.25
2018-12-23T07:09:58.944Z,8.40
2018-12-23T07:12:25.609Z,8.43
2018-12-23T07:14:52.348Z,7.58
2018-12-23T07:17:19.026Z,8.95
2018-12-23T07:19:45.682Z,7.92
2018-12-23T07:22:12.347Z,6.78
2018-12-23T07:24:39.027Z,8.70
2018-12-23T07:27:05.677Z,7.65
2018-12-23T07:29:32.331Z,7.60
2018-12-23T07:31:59.019Z,7.80
2018-12-23T07:34:25.674Z,7.70
2018-12-23T07:36:52.397Z,7.30
2018-12-23T07:39:19.059Z,8.05
2018-12-23T07:41:45.713Z,8.05
2018-12-23T07:44:12.393Z,8.63
2018-12-23T07:46:39.040Z,7.20
2018-12-23T07:49:05.789Z,6.92
2018-12-23T07:51:32.530Z,7.47
2018-12-23T07:53:59.202Z,7.78
2018-12-23T07:56:25.850Z,8.23
2018-12-23T07:58:52.521Z,7.50
2018-12-23T08:01:19.174Z,7.50
2018-12-23T08:03:45.846Z,8.08
2018-12-23T08:06:12.525Z,9.30
2018-12-23T08:08:39.175Z,8.70
2018-12-23T08:11:05.833Z,7.83
2018-12-23T08:13:32.519Z,7.35
2018-12-23T08:16:01.163Z,7.33
2018-12-23T08:18:27.849Z,9.08
2018-12-23T08:20:54.535Z,8.00
2018-12-23T08:23:21.196Z,8.10
2018-12-23T08:25:47.858Z,7.70
2018-12-23T08:28:14.539Z,7.03
2018-12-23T08:30:41.197Z,8.80
2018-12-23T08:33:07.875Z,8.13
2018-12-23T08:35:34.553Z,11.03
2018-12-23T08:38:01.208Z,8.90
2018-12-23T08:40:27.894Z,10.25
2018-12-23T08:42:54.554Z,8.90
2018-12-23T08:45:21.239Z,9.20
2018-12-23T08:47:47.903Z,9.35
2018-12-23T08:50:14.572Z,7.35
2018-12-23T08:52:41.252Z,9.45
2018-12-23T08:55:07.912Z,8.53
2018-12-23T08:57:35.460Z,7.85
2018-12-23T09:00:02.391Z,8.58
2018-12-23T09:02:29.054Z,8.00
2018-12-23T09:04:55.709Z,9.33
2018-12-23T09:07:22.399Z,8.08
2018-12-23T09:09:49.048Z,8.63
2018-12-23T09:12:15.733Z,8.35
2018-12-23T09:14:42.385Z,7.95
2018-12-23T09:17:47.181Z,8.18
2018-12-23T09:20:14.550Z,6.80
2018-12-23T09:22:41.860Z,7.47
2018-12-23T09:25:09.341Z,6.80
2018-12-23T09:27:36.735Z,10.50
2018-12-23T09:30:04.988Z,5.25
2018-12-23T09:32:32.409Z,6.62
2018-12-23T09:34:59.791Z,6.83
2018-12-23T09:37:27.176Z,5.55
2018-12-23T09:39:54.580Z,5.92
2018-12-23T09:42:21.991Z,6.70
2018-12-23T09:44:49.379Z,5.97
2018-12-23T09:47:16.755Z,6.95
2018-12-23T09:49:44.167Z,6.95
2018-12-23T09:52:11.552Z,6.47
2018-12-23T09:54:38.937Z,6.60
2018-12-23T09:57:06.343Z,6.97
2018-12-23T09:59:33.724Z,7.67
2018-12-23T10:02:01.136Z,7.97
2018-12-23T10:04:28.515Z,6.83
2018-12-23T10:06:55.932Z,7.05
2018-12-23T10:09:23.317Z,7.05
2018-12-23T10:11:50.697Z,7.65
2018-12-23T10:14:18.103Z,7.47
2018-12-23T10:16:45.493Z,7.45
2018-12-23T10:19:12.894Z,8.65
2018-12-23T10:21:40.199Z,7.78
2018-12-23T10:24:07.592Z,7.60
2018-12-23T10:26:35.004Z,8.03
2018-12-23T10:29:02.392Z,7.30
2018-12-23T10:31:29.776Z,6.95
2018-12-23T10:33:57.188Z,8.55
2018-12-23T10:36:24.576Z,8.03
2018-12-23T10:38:51.992Z,9.08
2018-12-23T10:41:19.374Z,6.35
2018-12-23T10:43:46.752Z,7.35
2018-12-23T10:46:14.154Z,6.20
2018-12-23T10:48:41.536Z,5.45
2018-12-23T10:51:08.930Z,5.05
2018-12-23T10:53:36.246Z,6.17
2018-12-23T10:56:03.660Z,5.75
2018-12-23T10:58:31.048Z,5.17
2018-12-23T11:00:58.440Z,5.15
2018-12-23T11:03:25.852Z,7.75
2018-12-23T11:05:53.239Z,5.05
2018-12-23T11:08:26.951Z,4.62
2018-12-23T11:10:49.658Z,4.78
2018-12-23T11:13:16.967Z,5.42
2018-12-23T11:15:44.378Z,5.50
2018-12-23T11:18:11.771Z,5.55
2018-12-23T11:20:39.188Z,6.28
2018-12-23T11:23:06.566Z,5.60
2018-12-23T11:25:33.956Z,6.55
2018-12-23T11:28:01.372Z,6.90
2018-12-23T11:30:28.763Z,9.83
2018-12-23T11:32:56.175Z,11.95
2018-12-23T11:35:23.576Z,12.80
2018-12-23T11:37:51.041Z,18.07
2018-12-23T11:40:18.461Z,22.73
2018-12-23T11:42:45.851Z,23.57
2018-12-23T11:45:13.266Z,24.75
2018-12-23T11:47:40.575Z,26.35
2018-12-23T11:50:07.892Z,27.13
2018-12-23T11:52:35.304Z,25.48
2018-12-23T11:55:02.685Z,21.73
2018-12-23T11:57:30.080Z,31.02
2018-12-23T11:59:57.487Z,29.12
2018-12-23T12:02:24.909Z,28.42
2018-12-23T12:04:52.296Z,21.12
2018-12-23T12:07:19.712Z,21.52
2018-12-23T12:09:47.095Z,19.10
2018-12-23T12:12:14.488Z,17.55
2018-12-23T12:14:41.931Z,16.00
2018-12-23T12:17:09.330Z,14.87
2018-12-23T12:19:36.712Z,18.02
2018-12-23T12:22:04.121Z,16.55
2018-12-23T12:24:31.511Z,16.52
2018-12-23T12:26:58.931Z,14.80
2018-12-23T12:29:26.311Z,14.70
2018-12-23T12:31:53.699Z,14.25
2018-12-23T12:34:21.039Z,14.83
2018-12-23T12:36:48.519Z,13.48
2018-12-23T12:39:15.911Z,14.80
2018-12-23T12:41:43.335Z,12.65
2018-12-23T12:44:10.719Z,14.80
2018-12-23T12:46:38.120Z,12.33
2018-12-23T12:49:05.528Z,14.38
2018-12-23T12:51:32.919Z,13.28
2018-12-23T12:54:00.310Z,12.85
2018-12-23T12:56:27.738Z,14.25
2018-12-23T12:58:55.133Z,15.32
2018-12-23T13:01:22.519Z,13.00
2018-12-23T13:03:49.938Z,15.20
2018-12-23T13:06:17.324Z,13.55
2018-12-23T13:08:44.723Z,12.95
2018-12-23T13:11:12.129Z,15.50
2018-12-23T13:13:39.538Z,13.78
2018-12-23T13:16:06.875Z,14.93
2018-12-23T13:18:34.259Z,16.93
2018-12-23T13:21:01.656Z,14.33
2018-12-23T13:23:29.067Z,15.55
2018-12-23T13:25:56.475Z,13.32
2018-12-23T13:28:23.873Z,13.18
2018-12-23T13:30:51.256Z,13.85
2018-12-23T13:33:18.662Z,15.00
2018-12-23T13:35:45.971Z,14.00
2018-12-23T13:38:13.379Z,14.30
2018-12-23T13:40:48.419Z,13.30
2018-12-23T13:43:23.359Z,14.80
2018-12-23T13:45:58.599Z,14.33
2018-12-23T13:48:33.910Z,14.00
2018-12-23T13:51:09.105Z,14.45
2018-12-23T13:53:38.150Z,17.90
2018-12-23T13:56:10.149Z,12.68
2018-12-23T13:58:41.964Z,13.80
2018-12-23T14:01:10.971Z,14.87
2018-12-23T14:03:51.944Z,14.07
2018-12-23T14:06:37.794Z,14.05
2018-12-23T14:09:17.118Z,14.07
2018-12-23T14:11:40.171Z,13.68
2018-12-23T14:14:07.592Z,11.00
2018-12-23T14:16:34.987Z,11.38
2018-12-23T14:19:02.376Z,11.60
2018-12-23T14:21:29.790Z,11.73
2018-12-23T14:23:57.179Z,12.23
2018-12-23T14:26:24.590Z,10.45
2018-12-23T14:28:51.988Z,9.15
2018-12-23T14:31:19.368Z,9.03
2018-12-23T14:33:46.792Z,10.85
2018-12-23T14:36:14.184Z,8.43
2018-12-23T14:38:41.573Z,9.43
2018-12-23T14:41:08.981Z,9.28
2018-12-23T14:43:36.372Z,9.20
2018-12-23T14:46:03.790Z,8.03
2018-12-23T14:48:31.180Z,6.95
2018-12-23T14:50:58.569Z,7.22
2018-12-23T14:53:25.985Z,6.85
2018-12-23T14:55:53.412Z,7.47
2018-12-23T14:58:20.791Z,7.58
2018-12-23T15:00:48.208Z,7.67
2018-12-23T15:03:15.582Z,7.65
2018-12-23T15:05:42.967Z,7.95
2018-12-23T15:08:10.379Z,7.20
2018-12-23T15:10:37.769Z,7.70
2018-12-23T15:13:05.146Z,7.60
2018-12-23T15:15:32.559Z,7.62
2018-12-23T15:17:59.972Z,8.30
2018-12-23T15:20:27.700Z,9.15
2018-12-23T15:22:55.087Z,8.45
2018-12-23T15:25:22.499Z,7.90
2018-12-23T15:27:49.888Z,7.67
2018-12-23T15:30:17.277Z,8.85
2018-12-23T15:32:44.603Z,9.23
2018-12-23T15:35:12.002Z,9.55
2018-12-23T15:37:39.407Z,10.85
2018-12-23T15:40:06.790Z,9.50
2018-12-23T15:42:34.185Z,8.70
2018-12-23T15:45:01.597Z,8.05
2018-12-23T15:47:28.971Z,8.65
2018-12-23T15:49:56.278Z,8.43
2018-12-23T15:52:23.686Z,8.65
2018-12-23T15:54:51.075Z,10.65
2018-12-23T15:57:18.465Z,8.20
2018-12-23T15:59:45.877Z,9.45
2018-12-23T16:02:13.259Z,8.38
2018-12-23T16:04:40.659Z,8.23
2018-12-23T16:07:08.049Z,9.00
2018-12-23T16:09:35.455Z,8.18
2018-12-23T16:12:02.831Z,6.65
2018-12-23T16:14:30.236Z,6.78
2018-12-23T16:16:57.729Z,7.80
2018-12-23T16:19:25.116Z,6.90
2018-12-23T16:21:52.506Z,7.03
2018-12-23T16:24:19.906Z,7.30
2018-12-23T16:26:47.293Z,6.30
2018-12-23T16:29:14.704Z,7.50
2018-12-23T16:31:42.083Z,7.20
2018-12-23T16:34:09.458Z,7.10
2018-12-23T16:36:36.872Z,8.10
2018-12-23T16:39:05.634Z,5.90
2018-12-23T16:41:33.013Z,6.40
2018-12-23T16:44:00.521Z,5.65
2018-12-23T16:46:27.928Z,5.30
2018-12-23T16:48:55.320Z,6.12
2018-12-23T16:51:22.707Z,6.30
2018-12-23T16:53:50.039Z,6.25
2018-12-23T16:56:17.419Z,6.75
2018-12-23T16:58:44.795Z,5.62
2018-12-23T17:01:12.217Z,5.85
2018-12-23T17:03:39.598Z,5.10
2018-12-23T17:06:06.999Z,4.90
2018-12-23T17:08:34.385Z,5.45
2018-12-23T17:11:01.775Z,5.80
2018-12-23T17:13:29.186Z,6.92
2018-12-23T17:15:56.570Z,7.92
2018-12-23T17:18:23.979Z,7.80
2018-12-23T17:20:51.385Z,7.55
2018-12-23T17:23:18.772Z,9.35
2018-12-23T17:25:46.190Z,7.60
2018-12-23T17:28:13.572Z,7.22
2018-12-23T17:30:40.946Z,7.85
2018-12-23T17:33:08.360Z,6.83
2018-12-23T17:35:35.760Z,6.70
2018-12-23T17:38:03.175Z,6.62
2018-12-23T17:40:30.572Z,6.78
2018-12-23T17:42:57.943Z,7.12
2018-12-23T17:45:25.361Z,7.05
2018-12-23T17:47:52.743Z,7.20
2018-12-23T17:50:20.118Z,7.83
2018-12-23T17:52:47.446Z,7.15
2018-12-23T17:55:14.832Z,6.92
2018-12-23T17:57:42.236Z,5.75
2018-12-23T18:00:11.830Z,6.87
2018-12-23T18:02:38.855Z,6.65
2018-12-23T18:05:06.235Z,6.15
2018-12-23T18:07:33.616Z,6.17
2018-12-23T18:10:01.027Z,7.10
2018-12-23T18:12:28.423Z,5.97
2018-12-23T18:14:55.846Z,6.10
2018-12-23T18:17:23.359Z,6.40
2018-12-23T18:19:50.834Z,6.53
2018-12-23T18:22:18.256Z,7.80
2018-12-23T18:24:45.633Z,7.40
2018-12-23T18:27:13.024Z,7.00
2018-12-23T18:29:40.425Z,6.95
2018-12-23T18:32:07.825Z,7.55
2018-12-23T18:34:35.225Z,7.55
2018-12-23T18:37:02.611Z,6.83
2018-12-23T18:39:29.987Z,7.05
2018-12-23T18:41:57.401Z,7.75
2018-12-23T18:44:24.783Z,7.47
2018-12-23T18:46:52.163Z,6.65
2018-12-23T18:49:19.572Z,7.37
2018-12-23T18:51:46.955Z,7.25
2018-12-23T18:54:14.363Z,7.28
2018-12-23T18:56:41.752Z,7.45
2018-12-23T18:59:09.311Z,7.65
2018-12-23T19:01:36.711Z,8.20
2018-12-23T19:04:04.100Z,9.45
2018-12-23T19:06:31.503Z,7.75
2018-12-23T19:09:00.521Z,8.65
2018-12-23T19:11:41.807Z,10.78
2018-12-23T19:14:27.223Z,10.38
2018-12-23T19:16:56.258Z,11.33
2018-12-23T19:19:25.199Z,10.08
2018-12-23T19:22:06.436Z,9.88
2018-12-23T19:24:38.390Z,11.05
2018-12-23T19:27:19.513Z,9.95
2018-12-23T19:29:54.746Z,9.93
2018-12-23T19:32:23.800Z,11.35
2018-12-23T19:34:55.526Z,9.95
2018-12-23T19:37:33.856Z,9.80
2018-12-23T19:40:19.536Z,8.55
2018-12-23T19:42:51.517Z,10.45
2018-12-23T19:45:20.531Z,9.98
2018-12-23T19:47:52.735Z,9.68
2018-12-23T19:50:27.912Z,8.20
2018-12-23T19:53:09.210Z,9.70
2018-12-23T19:55:44.420Z,10.70
2018-12-23T19:58:16.559Z,9.00
2018-12-23T20:00:54.823Z,9.53
2018-12-23T20:03:23.863Z,10.03
2018-12-23T20:05:52.874Z,7.50
2018-12-23T20:08:21.922Z,8.05
2018-12-23T20:10:58.823Z,8.50
2018-12-23T20:13:24.480Z,8.93
2018-12-23T20:15:56.445Z,8.30
2018-12-23T20:18:31.408Z,8.18
2018-12-23T20:21:03.355Z,8.33
2018-12-23T20:23:50.552Z,8.00
2018-12-23T20:26:19.582Z,7.90
2018-12-23T20:29:08.518Z,8.60
2018-12-23T20:31:53.968Z,7.78
2018-12-23T20:34:39.665Z,8.35
2018-12-23T20:37:17.429Z,8.25
2018-12-23T20:39:52.420Z,7.90
2018-12-23T20:42:36.512Z,9.63
2018-12-23T20:45:22.218Z,9.78
2018-12-23T20:47:51.236Z,11.00
2018-12-23T20:50:20.276Z,8.60
2018-12-23T20:52:49.299Z,9.63
2018-12-23T20:55:33.591Z,7.55
2018-12-23T20:58:14.931Z,8.80
2018-12-23T21:00:43.966Z,8.58
2018-12-23T21:03:15.615Z,7.12
2018-12-23T21:06:01.184Z,7.65
2018-12-23T21:08:36.419Z,8.45
2018-12-23T21:11:15.801Z,7.95
2018-12-23T21:13:41.698Z,8.50
2018-12-23T21:16:27.493Z,8.73
2018-12-23T21:18:59.602Z,10.00
2018-12-23T21:21:28.608Z,8.48
2018-12-23T21:24:14.249Z,8.60
2018-12-23T21:26:49.169Z,7.78
2018-12-23T21:29:21.127Z,7.05
2018-12-23T21:31:50.135Z,8.18
2018-12-23T21:34:35.897Z,7.20
2018-12-23T21:37:07.833Z,7.70
2018-12-23T21:39:51.955Z,7.62
2018-12-23T21:42:20.968Z,6.62
2018-12-23T21:45:08.355Z,6.12
2018-12-23T21:47:40.453Z,6.62
2018-12-23T21:50:18.767Z,6.42
2018-12-23T21:53:04.719Z,6.37
2018-12-23T21:55:36.357Z,5.92
2018-12-23T21:58:05.367Z,6.10
2018-12-23T22:00:46.507Z,9.53
2018-12-23T22:03:33.935Z,20.00
2018-12-23T22:06:19.536Z,32.55
2018-12-23T22:09:05.432Z,29.07
2018-12-23T22:11:34.500Z,21.52
2018-12-23T22:14:01.884Z,10.28
2018-12-23T22:16:29.282Z,7.30
2018-12-23T22:18:56.687Z,19.02
2018-12-23T22:21:24.085Z,32.70
2018-12-23T22:23:51.472Z,27.32
2018-12-23T22:26:18.892Z,10.43
2018-12-23T22:28:46.263Z,6.50
2018-12-23T22:31:13.573Z,4.95
2018-12-23T22:33:40.983Z,5.45
2018-12-23T22:36:08.355Z,5.37
2018-12-23T22:38:35.667Z,5.95
2018-12-23T22:41:03.075Z,6.67
2018-12-23T22:43:30.465Z,7.55
2018-12-23T22:45:57.862Z,9.23
2018-12-23T22:48:25.279Z,7.35
2018-12-23T22:50:52.653Z,7.17
2018-12-23T22:53:19.978Z,5.72
2018-12-23T22:55:47.371Z,5.65
2018-12-23T22:58:14.806Z,4.45
2018-12-23T23:00:42.178Z,4.30
2018-12-23T23:03:09.555Z,5.15
2018-12-23T23:05:36.976Z,4.72
2018-12-23T23:08:04.363Z,4.40
2018-12-23T23:10:31.736Z,5.35
2018-12-23T23:12:59.143Z,4.58
2018-12-23T23:15:26.525Z,5.12
2018-12-23T23:17:53.932Z,4.50
2018-12-23T23:20:21.318Z,4.62
2018-12-23T23:22:48.704Z,4.30
2018-12-23T23:25:16.097Z,4.83
2018-12-23T23:27:43.547Z,4.20
2018-12-23T23:30:10.960Z,4.75
2018-12-23T23:32:38.344Z,3.85
2018-12-23T23:35:05.719Z,3.75
2018-12-23T23:37:33.035Z,3.67
2018-12-23T23:40:00.425Z,3.80
2018-12-23T23:42:27.831Z,3.83
2018-12-23T23:44:55.216Z,4.12
2018-12-23T23:47:22.595Z,4.47
2018-12-23T23:49:50.000Z,4.25
2018-12-23T23:52:17.380Z,3.72
2018-12-23T23:54:44.787Z,4.10
2018-12-23T23:57:12.160Z,3.90
2018-12-23T23:59:39.545Z,4.55
